createdAt,value
2018-01-08T00:01:14.989Z,3.30
2018-01-08T00:03:43.939Z,3.63
2018-01-08T00:06:13.177Z,3.40
2018-01-08T00:08:42.096Z,3.63
2018-01-08T00:11:10.966Z,3.90
2018-01-08T00:13:39.916Z,3.93
2018-01-08T00:16:08.895Z,3.90
2018-01-08T00:18:37.720Z,3.70
2018-01-08T00:21:08.315Z,3.37
2018-01-08T00:23:37.193Z,3.33
2018-01-08T00:26:06.003Z,3.57
2018-01-08T00:28:36.528Z,3.30
2018-01-08T00:31:05.429Z,3.73
2018-01-08T00:33:34.246Z,3.63
2018-01-08T00:36:04.055Z,3.70
2018-01-08T00:38:33.019Z,4.00
2018-01-08T00:41:01.835Z,3.70
2018-01-08T00:43:30.675Z,3.63
2018-01-08T00:45:59.605Z,4.03
2018-01-08T00:48:28.447Z,3.90
2018-01-08T00:50:57.328Z,3.37
2018-01-08T00:53:26.162Z,3.40
2018-01-08T00:55:55.050Z,3.53
2018-01-08T00:58:23.904Z,3.60
2018-01-08T01:00:52.753Z,3.23
2018-01-08T01:03:21.687Z,3.30
2018-01-08T01:05:52.252Z,4.13
2018-01-08T01:08:21.153Z,4.17
2018-01-08T01:10:50.009Z,4.13
2018-01-08T01:13:18.888Z,3.50
2018-01-08T01:15:47.692Z,4.67
2018-01-08T01:18:16.543Z,6.10
2018-01-08T01:20:46.334Z,11.90
2018-01-08T01:23:15.367Z,7.20
2018-01-08T01:25:44.186Z,11.73
2018-01-08T01:28:13.101Z,14.93
2018-01-08T01:30:41.938Z,17.97
2018-01-08T01:33:10.836Z,20.03
2018-01-08T01:35:39.815Z,19.90
2018-01-08T01:38:08.677Z,20.07
2018-01-08T01:40:37.494Z,21.23
2018-01-08T01:43:06.376Z,21.43
2018-01-08T01:45:35.294Z,20.50
2018-01-08T01:48:04.197Z,22.23
2018-01-08T01:50:37.615Z,21.60
2018-01-08T01:53:06.431Z,22.33
2018-01-08T01:55:35.315Z,22.30
2018-01-08T01:58:05.110Z,22.17
2018-01-08T02:00:33.940Z,23.90
2018-01-08T02:03:02.836Z,22.80
2018-01-08T02:05:32.740Z,22.73
2018-01-08T02:08:01.686Z,22.50
2018-01-08T02:10:30.547Z,22.00
2018-01-08T02:12:59.445Z,20.67
2018-01-08T02:15:28.390Z,20.00
2018-01-08T02:17:57.195Z,20.60
2018-01-08T02:20:26.079Z,25.63
2018-01-08T02:22:55.238Z,23.87
2018-01-08T02:25:24.099Z,18.43
2018-01-08T02:27:53.842Z,19.07
2018-01-08T02:30:22.652Z,16.77
2018-01-08T02:32:51.488Z,14.50
2018-01-08T02:35:20.368Z,16.43
2018-01-08T02:37:49.192Z,16.13
2018-01-08T02:40:18.067Z,17.87
2018-01-08T02:42:49.456Z,14.90
2018-01-08T02:45:18.262Z,15.80
2018-01-08T02:47:47.106Z,13.67
2018-01-08T02:50:17.974Z,15.73
2018-01-08T02:52:47.143Z,15.00
2018-01-08T02:55:16.145Z,13.00
2018-01-08T02:57:45.346Z,14.60
2018-01-08T03:00:14.262Z,12.67
2018-01-08T03:02:45.844Z,16.83
2018-01-08T03:05:17.076Z,18.23
2018-01-08T03:07:46.037Z,16.80
2018-01-08T03:10:14.920Z,16.77
2018-01-08T03:12:43.801Z,16.50
2018-01-08T03:15:12.611Z,16.33
2018-01-08T03:17:41.430Z,18.43
2018-01-08T03:20:12.036Z,13.63
2018-01-08T03:22:40.862Z,13.07
2018-01-08T03:25:09.683Z,13.73
2018-01-08T03:27:38.563Z,11.40
2018-01-08T03:30:07.455Z,9.70
2018-01-08T03:32:36.324Z,9.70
2018-01-08T03:35:05.225Z,8.80
2018-01-08T03:37:34.034Z,7.60
2018-01-08T03:40:02.910Z,6.83
2018-01-08T03:42:33.396Z,7.93
2018-01-08T03:45:02.220Z,6.70
2018-01-08T03:47:31.009Z,8.00
2018-01-08T03:49:59.958Z,7.43
2018-01-08T03:52:28.858Z,10.30
2018-01-08T03:54:57.678Z,11.63
2018-01-08T03:57:26.553Z,11.20
2018-01-08T03:59:55.432Z,10.53
2018-01-08T04:02:24.307Z,8.93
2018-01-08T04:04:53.180Z,9.50
2018-01-08T04:07:21.996Z,9.13
2018-01-08T04:09:50.866Z,8.80
2018-01-08T04:12:20.537Z,9.10
2018-01-08T04:14:49.392Z,12.00
2018-01-08T04:17:18.272Z,12.10
2018-01-08T04:19:48.055Z,14.40
2018-01-08T04:22:16.858Z,14.90
2018-01-08T04:24:46.715Z,10.00
2018-01-08T04:27:16.435Z,13.50
2018-01-08T04:29:45.245Z,15.43
2018-01-08T04:32:14.060Z,24.87
2018-01-08T04:34:42.934Z,27.60
2018-01-08T04:37:11.778Z,16.60
2018-01-08T04:39:40.622Z,31.27
2018-01-08T04:42:09.485Z,15.93
2018-01-08T04:44:38.329Z,16.10
2018-01-08T04:47:07.182Z,12.10
2018-01-08T04:49:38.508Z,12.90
2018-01-08T04:52:07.365Z,10.20
2018-01-08T04:54:36.270Z,10.93
2018-01-08T04:57:05.176Z,10.37
2018-01-08T04:59:34.037Z,11.50
2018-01-08T05:02:02.942Z,12.93
2018-01-08T05:04:31.848Z,11.73
2018-01-08T05:07:00.708Z,12.20
2018-01-08T05:09:29.682Z,10.80
2018-01-08T05:11:59.700Z,12.33
2018-01-08T05:14:28.723Z,12.90
2018-01-08T05:16:57.723Z,10.57
2018-01-08T05:19:28.118Z,11.30
2018-01-08T05:21:59.052Z,11.00
2018-01-08T05:24:30.586Z,14.23
2018-01-08T05:27:03.172Z,16.70
2018-01-08T05:29:32.211Z,14.83
2018-01-08T05:32:01.172Z,14.80
2018-01-08T05:34:30.368Z,13.10
2018-01-08T05:37:00.136Z,15.03
2018-01-08T05:39:28.972Z,14.07
2018-01-08T05:41:57.836Z,11.20
2018-01-08T05:44:27.495Z,9.90
2018-01-08T05:46:56.340Z,12.10
2018-01-08T05:49:25.355Z,16.07
2018-01-08T05:51:56.806Z,17.40
2018-01-08T05:54:25.901Z,11.20
2018-01-08T05:56:54.899Z,9.27
2018-01-08T05:59:24.606Z,9.53
2018-01-08T06:01:57.699Z,8.47
2018-01-08T06:04:30.069Z,9.73
2018-01-08T06:06:59.165Z,10.70
2018-01-08T06:09:28.985Z,9.50
2018-01-08T06:11:58.939Z,9.30
2018-01-08T06:14:28.130Z,10.30
2018-01-08T06:16:57.084Z,8.63
2018-01-08T06:19:28.520Z,9.10
2018-01-08T06:21:57.529Z,8.93
2018-01-08T06:24:27.239Z,8.33
2018-01-08T06:27:03.131Z,9.17
2018-01-08T06:29:32.848Z,9.80
2018-01-08T06:32:03.028Z,9.07
2018-01-08T06:34:32.838Z,8.80
2018-01-08T06:37:01.813Z,10.33
2018-01-08T06:39:31.753Z,10.77
2018-01-08T06:42:01.154Z,10.70
2018-01-08T06:44:30.150Z,10.97
2018-01-08T06:46:59.044Z,10.10
2018-01-08T06:49:28.131Z,11.93
2018-01-08T06:51:57.989Z,11.00
2018-01-08T06:54:26.941Z,13.20
2018-01-08T06:56:57.876Z,11.60
2018-01-08T06:59:26.976Z,12.00
2018-01-08T07:01:56.005Z,12.70
2018-01-08T07:04:26.926Z,13.57
2018-01-08T07:06:56.007Z,15.60
2018-01-08T07:09:26.741Z,21.20
2018-01-08T07:11:56.718Z,24.73
2018-01-08T07:14:26.376Z,26.10
2018-01-08T07:16:55.321Z,23.83
2018-01-08T07:19:25.992Z,37.23
2018-01-08T07:21:54.990Z,29.20
2018-01-08T07:24:25.006Z,15.03
2018-01-08T07:26:53.942Z,18.20
2018-01-08T07:29:23.809Z,27.67
2018-01-08T07:31:52.810Z,27.67
2018-01-08T07:34:21.795Z,24.33
2018-01-08T07:36:51.778Z,24.90
2018-01-08T07:39:21.706Z,24.00
2018-01-08T07:41:50.829Z,16.73
2018-01-08T07:44:19.804Z,15.80
2018-01-08T07:46:48.921Z,14.27
2018-01-08T07:49:18.835Z,14.00
2018-01-08T07:51:47.680Z,11.57
2018-01-08T07:54:16.508Z,11.97
2018-01-08T07:56:46.310Z,13.10
2018-01-08T07:59:15.203Z,15.57
2018-01-08T08:01:44.080Z,16.00
2018-01-08T08:04:14.602Z,15.13
2018-01-08T08:06:43.473Z,14.70
2018-01-08T08:09:12.319Z,14.87
2018-01-08T08:11:41.215Z,13.27
2018-01-08T08:14:10.088Z,12.80
2018-01-08T08:16:38.944Z,12.30
2018-01-08T08:19:08.883Z,13.40
2018-01-08T08:21:37.749Z,14.77
2018-01-08T08:24:06.742Z,13.47
2018-01-08T08:26:35.661Z,14.23
2018-01-08T08:29:04.489Z,17.40
2018-01-08T08:31:33.412Z,19.60
2018-01-08T08:34:02.333Z,19.50
2018-01-08T08:36:31.183Z,22.10
2018-01-08T08:39:00.025Z,24.13
2018-01-08T08:41:31.798Z,29.37
2018-01-08T08:44:00.671Z,18.80
2018-01-08T08:46:29.485Z,19.63
2018-01-08T08:48:59.261Z,17.50
2018-01-08T08:51:28.146Z,19.60
2018-01-08T08:53:56.977Z,24.07
2018-01-08T08:56:29.462Z,21.10
2018-01-08T08:58:58.408Z,17.50
2018-01-08T09:01:27.241Z,15.23
2018-01-08T09:03:56.254Z,13.50
2018-01-08T09:06:25.201Z,16.13
2018-01-08T09:08:54.324Z,13.93
2018-01-08T09:11:25.150Z,16.57
2018-01-08T09:13:54.278Z,18.30
2018-01-08T09:16:23.860Z,26.50
2018-01-08T09:18:53.821Z,17.03
2018-01-08T09:21:24.026Z,19.03
2018-01-08T09:23:53.088Z,17.50
2018-01-08T09:26:22.296Z,18.00
2018-01-08T09:28:51.385Z,18.53
2018-01-08T09:31:20.378Z,17.10
2018-01-08T09:33:49.416Z,16.13
2018-01-08T09:36:19.466Z,16.87
2018-01-08T09:38:48.691Z,17.07
2018-01-08T09:41:17.734Z,16.53
2018-01-08T09:43:46.985Z,16.13
2018-01-08T09:46:16.187Z,14.90
2018-01-08T09:48:49.656Z,15.10
2018-01-08T09:51:18.674Z,13.60
2018-01-08T09:53:48.013Z,13.23
2018-01-08T09:56:17.002Z,14.57
2018-01-08T09:58:46.782Z,13.37
2018-01-08T10:01:16.947Z,13.90
2018-01-08T10:03:57.859Z,12.43
2018-01-08T10:06:44.390Z,12.30
2018-01-08T10:09:32.124Z,12.90
2018-01-08T10:12:18.722Z,12.30
2018-01-08T10:15:06.325Z,12.03
2018-01-08T10:17:53.063Z,13.67
2018-01-08T10:20:28.814Z,12.70
2018-01-08T10:22:58.742Z,12.20
2018-01-08T10:25:29.776Z,11.13
2018-01-08T10:27:59.831Z,12.70
2018-01-08T10:30:28.780Z,12.50
2018-01-08T10:32:57.818Z,10.30
2018-01-08T10:35:26.768Z,11.40
2018-01-08T10:37:55.656Z,10.90
2018-01-08T10:40:25.429Z,11.03
2018-01-08T10:43:00.101Z,12.27
2018-01-08T10:45:40.971Z,10.63
2018-01-08T10:48:16.350Z,11.73
2018-01-08T10:50:51.788Z,11.10
2018-01-08T10:53:30.404Z,11.40
2018-01-08T10:55:59.288Z,10.90
2018-01-08T10:58:28.196Z,12.33
2018-01-08T11:01:02.825Z,11.47
2018-01-08T11:03:37.553Z,12.23
2018-01-08T11:06:07.511Z,11.20
2018-01-08T11:08:37.468Z,10.63
2018-01-08T11:11:06.580Z,11.07
2018-01-08T11:13:35.733Z,11.47
2018-01-08T11:16:04.686Z,11.97
2018-01-08T11:18:33.808Z,11.10
2018-01-08T11:21:02.929Z,11.47
2018-01-08T11:23:31.900Z,12.00
2018-01-08T11:26:00.836Z,11.47
2018-01-08T11:28:32.506Z,12.40
2018-01-08T11:31:01.600Z,12.37
2018-01-08T11:33:30.593Z,12.27
2018-01-08T11:35:59.767Z,12.97
2018-01-08T11:38:28.886Z,13.20
2018-01-08T11:40:58.396Z,14.63
2018-01-08T11:43:27.588Z,12.30
2018-01-08T11:45:56.751Z,14.03
2018-01-08T11:48:25.984Z,22.00
2018-01-08T11:50:55.187Z,13.27
2018-01-08T11:53:24.487Z,13.33
2018-01-08T11:55:54.564Z,14.83
2018-01-08T11:58:24.901Z,13.37
2018-01-08T12:00:54.083Z,13.73
2018-01-08T12:03:23.200Z,14.00
2018-01-08T12:05:52.317Z,14.87
2018-01-08T12:08:21.461Z,13.67
2018-01-08T12:10:50.661Z,15.70
2018-01-08T12:13:21.601Z,17.03
2018-01-08T12:15:50.857Z,14.93
2018-01-08T12:18:20.055Z,13.20
2018-01-08T12:20:50.894Z,13.97
2018-01-08T12:23:20.030Z,16.27
2018-01-08T12:25:49.082Z,14.87
2018-01-08T12:28:19.855Z,14.10
2018-01-08T12:30:49.099Z,14.67
2018-01-08T12:33:18.162Z,15.43
2018-01-08T12:35:49.658Z,15.97
2018-01-08T12:38:20.148Z,15.07
2018-01-08T12:40:49.189Z,14.80
2018-01-08T12:43:18.229Z,18.73
2018-01-08T12:45:47.120Z,20.40
2018-01-08T12:48:16.878Z,18.43
2018-01-08T12:50:49.368Z,18.50
2018-01-08T12:53:19.327Z,16.47
2018-01-08T12:55:48.379Z,16.50
2018-01-08T12:58:21.899Z,16.63
2018-01-08T13:00:52.929Z,17.07
2018-01-08T13:03:22.018Z,17.10
2018-01-08T13:05:51.014Z,17.77
2018-01-08T13:08:19.997Z,17.70
2018-01-08T13:10:48.848Z,19.63
2018-01-08T13:13:17.886Z,17.80
2018-01-08T13:15:46.712Z,16.63
2018-01-08T13:18:15.599Z,17.93
2018-01-08T13:20:44.499Z,16.90
2018-01-08T13:23:13.408Z,16.70
2018-01-08T13:25:42.397Z,16.03
2018-01-08T13:28:11.313Z,17.33
2018-01-08T13:30:40.213Z,21.30
2018-01-08T13:33:09.106Z,20.73
2018-01-08T13:35:38.067Z,20.60
2018-01-08T13:38:07.047Z,19.80
2018-01-08T13:40:36.034Z,25.00
2018-01-08T13:43:06.696Z,22.40
2018-01-08T13:45:35.777Z,22.17
2018-01-08T13:48:04.747Z,24.00
2018-01-08T13:50:33.735Z,28.60
2018-01-08T13:53:02.681Z,31.10
2018-01-08T13:55:31.645Z,30.67
2018-01-08T13:58:01.520Z,31.53
2018-01-08T14:00:30.532Z,33.07
2018-01-08T14:03:00.535Z,33.57
2018-01-08T14:05:32.503Z,37.33
2018-01-08T14:08:01.907Z,43.27
2018-01-08T14:10:31.819Z,50.83
2018-01-08T14:13:01.836Z,60.77
2018-01-08T14:15:31.141Z,54.20
2018-01-08T14:18:00.335Z,60.40
2018-01-08T14:20:32.094Z,57.50
2018-01-08T14:23:01.908Z,55.10
2018-01-08T14:25:30.913Z,61.57
2018-01-08T14:28:01.740Z,67.60
2018-01-08T14:30:35.546Z,80.03
2018-01-08T14:33:06.244Z,73.37
2018-01-08T14:35:36.394Z,77.60
2018-01-08T14:38:05.392Z,90.00
2018-01-08T14:40:36.232Z,118.50
2018-01-08T14:43:06.456Z,109.13
2018-01-08T14:45:35.522Z,99.83
2018-01-08T14:48:05.464Z,80.90
2018-01-08T14:50:35.483Z,83.37
2018-01-08T14:53:04.483Z,67.73
2018-01-08T14:55:33.673Z,71.83
2018-01-08T14:58:02.774Z,66.10
2018-01-08T15:00:33.608Z,72.40
2018-01-08T15:03:03.666Z,67.83
2018-01-08T15:05:32.721Z,62.47
2018-01-08T15:08:02.738Z,63.60
2018-01-08T15:10:33.312Z,66.63
2018-01-08T15:13:04.213Z,64.47
2018-01-08T15:15:34.371Z,64.53
2018-01-08T15:18:04.551Z,64.23
2018-01-08T15:20:33.646Z,68.53
2018-01-08T15:23:02.845Z,64.40
2018-01-08T15:25:32.901Z,67.60
2018-01-08T15:28:04.337Z,62.73
2018-01-08T15:30:34.380Z,64.83
2018-01-08T15:33:06.956Z,62.13
2018-01-08T15:35:36.990Z,65.70
2018-01-08T15:38:06.206Z,60.13
2018-01-08T15:40:40.626Z,71.50
2018-01-08T15:43:09.546Z,59.10
2018-01-08T15:45:39.665Z,62.00
2018-01-08T15:48:08.761Z,63.53
2018-01-08T15:50:38.572Z,83.40
2018-01-08T15:53:07.818Z,77.33
2018-01-08T15:55:38.610Z,61.37
2018-01-08T15:58:08.831Z,60.37
2018-01-08T16:00:37.824Z,57.83
2018-01-08T16:03:09.174Z,74.00
2018-01-08T16:05:39.034Z,60.10
2018-01-08T16:08:08.770Z,61.13
2018-01-08T16:10:39.538Z,63.87
2018-01-08T16:13:11.500Z,62.10
2018-01-08T16:15:41.970Z,60.70
2018-01-08T16:18:10.920Z,60.13
2018-01-08T16:20:40.735Z,61.27
2018-01-08T16:23:13.310Z,59.23
2018-01-08T16:25:43.019Z,57.47
2018-01-08T16:28:12.015Z,59.40
2018-01-08T16:30:42.184Z,57.60
2018-01-08T16:33:11.231Z,57.10
2018-01-08T16:35:40.076Z,54.07
2018-01-08T16:38:11.680Z,54.30
2018-01-08T16:40:41.387Z,52.37
2018-01-08T16:43:10.423Z,51.57
2018-01-08T16:45:40.294Z,55.60
2018-01-08T16:48:09.438Z,59.90
2018-01-08T16:50:39.256Z,54.73
2018-01-08T16:53:09.212Z,56.27
2018-01-08T16:55:38.155Z,53.73
2018-01-08T16:58:07.988Z,55.40
2018-01-08T17:00:37.227Z,52.93
2018-01-08T17:03:06.441Z,51.17
2018-01-08T17:05:35.466Z,49.00
2018-01-08T17:08:05.721Z,54.70
2018-01-08T17:10:34.637Z,53.53
2018-01-08T17:13:03.730Z,56.43
2018-01-08T17:15:32.902Z,56.87
2018-01-08T17:18:01.935Z,53.70
2018-01-08T17:20:31.122Z,56.40
2018-01-08T17:23:00.530Z,68.33
2018-01-08T17:25:29.529Z,66.90
2018-01-08T17:27:59.550Z,58.90
2018-01-08T17:30:29.650Z,58.43
2018-01-08T17:32:58.661Z,55.63
2018-01-08T17:35:29.730Z,53.47
2018-01-08T17:37:59.660Z,50.10
2018-01-08T17:40:30.524Z,57.77
2018-01-08T17:43:01.521Z,50.57
2018-01-08T17:45:32.547Z,54.50
2018-01-08T17:48:04.425Z,51.47
2018-01-08T17:50:33.323Z,48.27
2018-01-08T17:53:02.164Z,52.37
2018-01-08T17:55:32.741Z,51.23
2018-01-08T17:58:01.660Z,52.67
2018-01-08T18:00:30.601Z,54.27
2018-01-08T18:02:59.560Z,55.20
2018-01-08T18:05:28.612Z,54.43
2018-01-08T18:07:57.580Z,50.07
2018-01-08T18:10:27.498Z,48.60
2018-01-08T18:12:56.430Z,46.10
2018-01-08T18:15:25.324Z,54.00
2018-01-08T18:17:54.267Z,49.50
2018-01-08T18:20:23.147Z,49.73
2018-01-08T18:22:52.081Z,54.77
2018-01-08T18:25:23.804Z,48.57
2018-01-08T18:27:52.714Z,49.17
2018-01-08T18:30:21.667Z,50.40
2018-01-08T18:32:50.637Z,50.47
2018-01-08T18:35:19.685Z,50.33
2018-01-08T18:37:56.466Z,47.67
2018-01-08T18:40:26.634Z,52.17
2018-01-08T18:42:56.478Z,48.63
2018-01-08T18:45:25.817Z,48.77
2018-01-08T18:47:55.044Z,51.60
2018-01-08T18:50:24.582Z,48.87
2018-01-08T18:52:58.514Z,44.30
2018-01-08T18:55:29.451Z,42.80
2018-01-08T18:58:00.277Z,45.10
2018-01-08T19:00:30.305Z,45.27
2018-01-08T19:03:00.265Z,45.00
2018-01-08T19:05:29.420Z,51.23
2018-01-08T19:07:59.236Z,44.57
2018-01-08T19:10:28.436Z,49.30
2018-01-08T19:12:57.634Z,42.87
2018-01-08T19:15:26.971Z,42.80
2018-01-08T19:17:56.390Z,42.60
2018-01-08T19:20:27.248Z,40.30
2018-01-08T19:22:56.795Z,44.57
2018-01-08T19:25:25.941Z,42.10
2018-01-08T19:27:57.288Z,44.30
2018-01-08T19:30:26.970Z,44.13
2018-01-08T19:32:56.781Z,47.53
2018-01-08T19:35:27.188Z,51.70
2018-01-08T19:37:56.148Z,42.80
2018-01-08T19:40:25.445Z,42.70
2018-01-08T19:42:55.758Z,42.40
2018-01-08T19:45:25.106Z,41.23
2018-01-08T19:47:54.047Z,43.30
2018-01-08T19:50:23.206Z,45.40
2018-01-08T19:52:52.576Z,44.27
2018-01-08T19:55:21.774Z,46.30
2018-01-08T19:57:53.189Z,43.73
2018-01-08T20:00:22.357Z,46.53
2018-01-08T20:02:51.836Z,42.43
2018-01-08T20:05:21.106Z,47.40
2018-01-08T20:07:50.391Z,44.30
2018-01-08T20:10:19.443Z,42.57
2018-01-08T20:12:49.648Z,47.50
2018-01-08T20:15:18.814Z,44.30
2018-01-08T20:17:47.909Z,43.40
2018-01-08T20:20:17.148Z,41.23
2018-01-08T20:22:46.299Z,43.70
2018-01-08T20:25:15.422Z,43.30
2018-01-08T20:27:53.348Z,44.13
2018-01-08T20:30:22.452Z,39.63
2018-01-08T20:32:51.640Z,42.57
2018-01-08T20:35:21.785Z,40.80
2018-01-08T20:37:51.188Z,43.20
2018-01-08T20:40:20.412Z,43.47
2018-01-08T20:42:49.641Z,47.73
2018-01-08T20:45:18.779Z,44.97
2018-01-08T20:47:47.955Z,42.40
2018-01-08T20:50:17.217Z,44.77
2018-01-08T20:52:51.539Z,45.53
2018-01-08T20:55:25.949Z,46.13
2018-01-08T20:57:55.683Z,43.73
2018-01-08T21:00:25.359Z,46.27
2018-01-08T21:02:58.113Z,45.67
2018-01-08T21:05:27.449Z,44.37
2018-01-08T21:07:56.768Z,45.20
2018-01-08T21:10:29.211Z,44.67
2018-01-08T21:12:58.365Z,42.60
2018-01-08T21:15:27.522Z,43.87
2018-01-08T21:17:58.392Z,40.17
2018-01-08T21:20:27.612Z,41.50
2018-01-08T21:22:56.592Z,41.50
2018-01-08T21:25:25.785Z,40.87
2018-01-08T21:27:55.386Z,44.23
2018-01-08T21:30:24.578Z,41.77
2018-01-08T21:32:55.069Z,41.70
2018-01-08T21:35:24.902Z,40.57
2018-01-08T21:37:54.316Z,42.60
2018-01-08T21:40:26.527Z,40.83
2018-01-08T21:42:56.614Z,43.70
2018-01-08T21:45:26.401Z,43.47
2018-01-08T21:47:56.280Z,44.70
2018-01-08T21:52:51.140Z,47.90
2018-01-08T21:55:20.322Z,45.20
2018-01-08T21:57:49.441Z,45.47
2018-01-08T22:00:18.662Z,46.80
2018-01-08T22:02:50.224Z,45.37
2018-01-08T22:05:19.767Z,45.30
2018-01-08T22:07:49.012Z,48.20
2018-01-08T22:10:19.133Z,49.33
2018-01-08T22:12:48.297Z,51.97
2018-01-08T22:15:17.383Z,46.80
2018-01-08T22:17:46.713Z,43.70
2018-01-08T22:20:15.771Z,44.07
2018-01-08T22:22:44.940Z,47.13
2018-01-08T22:25:14.269Z,46.20
2018-01-08T22:27:43.287Z,43.13
2018-01-08T22:30:12.373Z,42.27
2018-01-08T22:32:45.106Z,44.77
2018-01-08T22:35:14.154Z,48.23
2018-01-08T22:37:43.230Z,45.17
2018-01-08T22:40:13.154Z,40.53
2018-01-08T22:42:42.264Z,40.70
2018-01-08T22:45:11.376Z,41.40
2018-01-08T22:47:40.768Z,43.03
2018-01-08T22:50:10.128Z,40.03
2018-01-08T22:52:39.163Z,42.40
2018-01-08T22:55:08.268Z,47.40
2018-01-08T22:57:37.347Z,54.63
2018-01-08T23:00:06.578Z,52.70
2018-01-08T23:02:37.404Z,47.37
2018-01-08T23:05:06.345Z,42.83
2018-01-08T23:07:35.487Z,42.33
2018-01-08T23:10:04.818Z,44.33
2018-01-08T23:12:33.828Z,42.93
2018-01-08T23:15:02.997Z,41.93
2018-01-08T23:17:31.923Z,42.20
2018-01-08T23:20:00.936Z,40.37
2018-01-08T23:22:29.863Z,42.63
2018-01-08T23:25:00.515Z,39.57
2018-01-08T23:27:29.694Z,42.33
2018-01-08T23:29:58.601Z,41.77
2018-01-08T23:32:27.558Z,44.37
2018-01-08T23:34:56.502Z,42.30
2018-01-08T23:37:25.581Z,44.50
2018-01-08T23:39:54.579Z,46.50
2018-01-08T23:42:23.485Z,45.57
2018-01-08T23:44:52.412Z,40.90
2018-01-08T23:47:22.426Z,40.80
2018-01-08T23:49:51.481Z,39.47
2018-01-08T23:52:20.472Z,42.63
2018-01-08T23:54:50.457Z,41.97
2018-01-08T23:57:19.846Z,45.77
2018-01-08T23:59:48.799Z,43.23
